createdAt,value
2023-05-24T00:00:14.744Z,26.60
2023-05-24T00:01:14.815Z,26.60
2023-05-24T00:02:14.763Z,26.58
2023-05-24T00:03:14.959Z,26.58
2023-05-24T00:04:14.938Z,26.58
2023-05-24T00:05:14.826Z,26.59
2023-05-24T00:06:14.867Z,26.56
2023-05-24T00:07:14.860Z,26.59
2023-05-24T00:08:14.869Z,26.59
2023-05-24T00:09:14.887Z,26.58
2023-05-24T00:10:14.926Z,26.59
2023-05-24T00:11:14.919Z,26.59
2023-05-24T00:12:14.947Z,26.58
2023-05-24T00:13:14.955Z,26.56
2023-05-24T00:14:14.997Z,26.58
2023-05-24T00:15:15.002Z,26.56
2023-05-24T00:16:15.048Z,26.56
2023-05-24T00:17:15.055Z,26.58
2023-05-24T00:18:15.061Z,26.56
2023-05-24T00:19:15.078Z,26.56
2023-05-24T00:20:15.118Z,26.58
2023-05-24T00:21:15.122Z,26.56
2023-05-24T00:22:15.136Z,26.56
2023-05-24T00:23:15.161Z,26.56
2023-05-24T00:24:15.172Z,26.55
2023-05-24T00:25:15.216Z,26.55
2023-05-24T00:26:15.216Z,26.56
2023-05-24T00:27:15.251Z,26.55
2023-05-24T00:28:15.258Z,26.55
2023-05-24T00:29:15.287Z,26.53
2023-05-24T00:30:15.332Z,26.55
2023-05-24T00:31:15.350Z,26.56
2023-05-24T00:32:15.418Z,26.52
2023-05-24T00:34:34.128Z,26.51
2023-05-24T00:35:34.140Z,26.52
2023-05-24T00:36:34.340Z,26.53
2023-05-24T00:37:34.098Z,26.53
2023-05-24T00:38:34.116Z,26.55
2023-05-24T00:39:34.094Z,26.53
2023-05-24T00:40:34.094Z,26.56
2023-05-24T00:41:34.339Z,26.58
2023-05-24T00:42:34.071Z,26.53
2023-05-24T00:43:34.058Z,26.53
2023-05-24T00:44:34.069Z,26.55
2023-05-24T00:45:34.101Z,26.56
2023-05-24T00:46:34.398Z,26.56
2023-05-24T00:47:34.206Z,26.53
2023-05-24T00:48:34.141Z,26.55
2023-05-24T00:49:34.149Z,26.55
2023-05-24T00:50:34.178Z,26.55
2023-05-24T00:51:34.345Z,26.55
2023-05-24T00:52:34.228Z,26.53
2023-05-24T00:53:34.240Z,26.56
2023-05-24T00:54:34.263Z,26.55
2023-05-24T00:55:34.291Z,26.55
2023-05-24T00:56:34.332Z,26.53
2023-05-24T00:57:34.369Z,26.55
2023-05-24T00:58:34.369Z,26.55
2023-05-24T00:59:34.407Z,26.56
2023-05-24T01:00:34.420Z,26.56
2023-05-24T01:01:34.872Z,26.53
2023-05-24T01:02:34.589Z,26.53
2023-05-24T01:03:34.585Z,26.52
2023-05-24T01:04:34.538Z,26.55
2023-05-24T01:05:34.587Z,26.53
2023-05-24T01:06:34.613Z,26.52
2023-05-24T01:07:34.623Z,26.55
2023-05-24T01:08:35.655Z,26.53
2023-05-24T01:09:34.683Z,26.52
2023-05-24T01:10:34.719Z,26.53
2023-05-24T01:11:34.750Z,26.52
2023-05-24T01:12:34.764Z,26.52
2023-05-24T01:13:34.798Z,26.51
2023-05-24T01:14:34.853Z,26.52
2023-05-24T01:15:34.864Z,26.52
2023-05-24T01:16:35.023Z,26.52
2023-05-24T01:17:34.949Z,26.52
2023-05-24T01:18:34.972Z,26.49
2023-05-24T01:19:34.975Z,26.52
2023-05-24T01:20:35.216Z,26.51
2023-05-24T01:21:35.069Z,26.49
2023-05-24T01:22:35.095Z,26.49
2023-05-24T01:23:35.118Z,26.49
2023-05-24T01:24:35.145Z,26.48
2023-05-24T01:25:35.166Z,26.49
2023-05-24T01:26:35.213Z,26.49
2023-05-24T01:27:35.239Z,26.52
2023-05-24T01:28:35.275Z,26.51
2023-05-24T01:29:35.333Z,26.48
2023-05-24T01:30:35.338Z,26.49
2023-05-24T01:31:35.415Z,26.49
2023-05-24T01:32:35.414Z,26.49
2023-05-24T01:33:35.442Z,26.49
2023-05-24T01:34:35.468Z,26.49
2023-05-24T01:35:35.496Z,26.49
2023-05-24T01:36:35.530Z,26.49
2023-05-24T01:37:35.579Z,26.48
2023-05-24T01:38:35.613Z,26.51
2023-05-24T01:39:35.645Z,26.49
2023-05-24T01:40:35.666Z,26.48
2023-05-24T01:41:35.695Z,26.46
2023-05-24T01:42:35.735Z,26.48
2023-05-24T01:43:35.750Z,26.46
2023-05-24T01:44:35.783Z,26.49
2023-05-24T01:45:35.805Z,26.48
2023-05-24T01:46:35.876Z,26.49
2023-05-24T01:47:35.944Z,26.46
2023-05-24T01:48:35.938Z,26.49
2023-05-24T01:49:35.955Z,26.49
2023-05-24T01:50:35.967Z,26.46
2023-05-24T01:51:36.016Z,26.48
2023-05-24T01:52:36.060Z,26.45
2023-05-24T01:53:36.087Z,26.46
2023-05-24T01:54:36.100Z,26.48
2023-05-24T01:55:36.142Z,26.48
2023-05-24T01:56:36.174Z,26.46
2023-05-24T01:57:36.187Z,26.45
2023-05-24T01:58:36.226Z,26.46
2023-05-24T01:59:36.278Z,26.46
2023-05-24T02:00:36.313Z,26.43
2023-05-24T02:01:36.405Z,26.46
2023-05-24T02:02:36.461Z,26.45
2023-05-24T02:03:36.472Z,26.48
2023-05-24T02:04:36.424Z,26.43
2023-05-24T02:05:36.463Z,26.45
2023-05-24T02:06:36.514Z,26.46
2023-05-24T02:07:36.558Z,26.45
2023-05-24T02:08:36.587Z,26.42
2023-05-24T02:09:36.622Z,26.45
2023-05-24T02:10:36.665Z,26.45
2023-05-24T02:11:36.696Z,26.45
2023-05-24T02:12:36.762Z,26.48
2023-05-24T02:13:36.783Z,26.43
2023-05-24T02:14:36.794Z,26.45
2023-05-24T02:15:36.847Z,26.45
2023-05-24T02:16:36.912Z,26.46
2023-05-24T02:17:36.939Z,26.45
2023-05-24T02:18:36.937Z,26.41
2023-05-24T02:19:36.986Z,26.43
2023-05-24T02:20:37.190Z,26.42
2023-05-24T02:21:37.082Z,26.43
2023-05-24T02:22:37.081Z,26.43
2023-05-24T02:23:37.126Z,26.42
2023-05-24T02:24:37.170Z,26.43
2023-05-24T02:25:37.186Z,26.41
2023-05-24T02:26:37.247Z,26.42
2023-05-24T02:27:37.256Z,26.42
2023-05-24T02:28:37.310Z,26.42
2023-05-24T02:29:37.358Z,26.42
2023-05-24T02:30:37.400Z,26.41
2023-05-24T02:31:37.456Z,26.41
2023-05-24T02:32:37.512Z,26.42
2023-05-24T02:33:37.489Z,26.42
2023-05-24T02:34:37.505Z,26.41
2023-05-24T02:35:37.566Z,26.43
2023-05-24T02:36:37.628Z,26.42
2023-05-24T02:37:37.640Z,26.42
2023-05-24T02:38:37.657Z,26.39
2023-05-24T02:39:37.706Z,26.43
2023-05-24T02:40:37.746Z,26.42
2023-05-24T02:41:37.791Z,26.41
2023-05-24T02:42:37.802Z,26.41
2023-05-24T02:43:37.850Z,26.39
2023-05-24T02:44:37.891Z,26.42
2023-05-24T02:45:37.933Z,26.41
2023-05-24T02:46:38.037Z,26.38
2023-05-24T02:47:37.990Z,26.41
2023-05-24T02:48:38.015Z,26.38
2023-05-24T02:49:38.056Z,26.39
2023-05-24T02:50:38.085Z,26.39
2023-05-24T02:51:38.114Z,26.39
2023-05-24T02:52:38.157Z,26.39
2023-05-24T02:53:38.218Z,26.36
2023-05-24T02:54:38.244Z,26.35
2023-05-24T02:55:38.263Z,26.36
2023-05-24T02:56:38.309Z,26.36
2023-05-24T02:57:38.355Z,26.38
2023-05-24T02:58:38.381Z,26.36
2023-05-24T02:59:38.399Z,26.35
2023-05-24T03:00:38.452Z,26.38
2023-05-24T03:01:38.516Z,26.38
2023-05-24T03:02:38.906Z,26.38
2023-05-24T03:03:38.662Z,26.38
2023-05-24T03:04:38.605Z,26.36
2023-05-24T03:05:38.631Z,26.36
2023-05-24T03:06:38.704Z,26.38
2023-05-24T03:07:38.724Z,26.36
2023-05-24T03:08:38.752Z,26.34
2023-05-24T03:09:38.782Z,26.38
2023-05-24T03:10:38.839Z,26.35
2023-05-24T03:11:38.865Z,26.36
2023-05-24T03:12:38.901Z,26.36
2023-05-24T03:13:38.934Z,26.35
2023-05-24T03:14:39.002Z,26.35
2023-05-24T03:15:39.021Z,26.36
2023-05-24T03:16:39.114Z,26.35
2023-05-24T03:17:39.133Z,26.35
2023-05-24T03:18:39.143Z,26.35
2023-05-24T03:19:39.189Z,26.34
2023-05-24T03:20:39.241Z,26.35
2023-05-24T03:21:39.239Z,26.36
2023-05-24T03:22:39.268Z,26.36
2023-05-24T03:23:39.323Z,26.34
2023-05-24T03:24:39.350Z,26.36
2023-05-24T03:25:39.383Z,26.32
2023-05-24T03:26:39.416Z,26.34
2023-05-24T03:27:39.433Z,26.34
2023-05-24T03:28:39.482Z,26.38
2023-05-24T03:29:39.520Z,26.32
2023-05-24T03:30:39.598Z,26.32
2023-05-24T03:31:39.604Z,26.31
2023-05-24T03:32:39.710Z,26.36
2023-05-24T03:33:39.637Z,26.35
2023-05-24T03:34:39.692Z,26.34
2023-05-24T03:35:39.726Z,26.34
2023-05-24T03:36:39.758Z,26.36
2023-05-24T03:37:39.786Z,26.34
2023-05-24T03:38:39.820Z,26.35
2023-05-24T03:39:39.853Z,26.34
2023-05-24T03:40:39.925Z,26.35
2023-05-24T03:41:39.930Z,26.34
2023-05-24T03:42:39.953Z,26.32
2023-05-24T03:43:39.963Z,26.35
2023-05-24T03:44:40.008Z,26.34
2023-05-24T03:45:40.376Z,26.34
2023-05-24T03:46:40.174Z,26.35
2023-05-24T03:47:40.160Z,26.34
2023-05-24T03:48:40.165Z,26.34
2023-05-24T03:49:40.152Z,26.34
2023-05-24T03:50:40.286Z,26.35
2023-05-24T03:51:40.224Z,26.34
2023-05-24T03:52:40.261Z,26.34
2023-05-24T03:53:40.294Z,26.32
2023-05-24T03:54:40.326Z,26.34
2023-05-24T03:55:40.360Z,26.34
2023-05-24T03:56:40.386Z,26.32
2023-05-24T03:57:40.417Z,26.35
2023-05-24T03:58:40.465Z,26.35
2023-05-24T03:59:41.403Z,26.32
2023-05-24T04:00:40.601Z,26.32
2023-05-24T04:01:40.562Z,26.31
2023-05-24T04:02:40.629Z,26.32
2023-05-24T04:03:40.703Z,26.32
2023-05-24T04:04:40.649Z,26.32
2023-05-24T04:05:40.677Z,26.34
2023-05-24T04:06:40.716Z,26.31
2023-05-24T04:07:40.767Z,26.30
2023-05-24T04:08:40.817Z,26.32
2023-05-24T04:09:40.829Z,26.32
2023-05-24T04:10:41.120Z,26.31
2023-05-24T04:11:40.884Z,26.31
2023-05-24T04:12:40.909Z,26.32
2023-05-24T04:13:40.953Z,26.34
2023-05-24T04:14:40.991Z,26.31
2023-05-24T04:15:41.013Z,26.31
2023-05-24T04:16:41.108Z,26.32
2023-05-24T04:17:41.165Z,26.30
2023-05-24T04:18:41.204Z,26.31
2023-05-24T04:19:41.138Z,26.30
2023-05-24T04:20:41.484Z,26.31
2023-05-24T04:21:41.233Z,26.31
2023-05-24T04:22:41.252Z,26.31
2023-05-24T04:23:41.273Z,26.31
2023-05-24T04:24:41.376Z,26.32
2023-05-24T04:25:41.477Z,26.31
2023-05-24T04:26:41.391Z,26.31
2023-05-24T04:27:41.419Z,26.31
2023-05-24T04:28:41.440Z,26.32
2023-05-24T04:29:41.490Z,26.30
2023-05-24T04:30:41.673Z,26.31
2023-05-24T04:31:41.580Z,26.31
2023-05-24T04:32:41.645Z,26.30
2023-05-24T04:33:41.608Z,26.31
2023-05-24T04:34:41.653Z,26.31
2023-05-24T04:35:41.680Z,26.31
2023-05-24T04:36:41.716Z,26.32
2023-05-24T04:37:41.736Z,26.31
2023-05-24T04:38:41.822Z,26.30
2023-05-24T04:39:41.828Z,26.28
2023-05-24T04:40:42.020Z,26.30
2023-05-24T04:41:41.898Z,26.30
2023-05-24T04:42:41.901Z,26.30
2023-05-24T04:43:41.939Z,26.30
2023-05-24T04:44:41.977Z,26.31
2023-05-24T04:45:42.009Z,26.30
2023-05-24T04:46:42.106Z,26.30
2023-05-24T04:47:42.109Z,26.31
2023-05-24T04:48:42.120Z,26.31
2023-05-24T04:49:42.165Z,26.27
2023-05-24T04:50:42.338Z,26.31
2023-05-24T04:51:42.237Z,26.25
2023-05-24T04:52:42.266Z,26.28
2023-05-24T04:53:42.293Z,26.28
2023-05-24T04:54:42.336Z,26.30
2023-05-24T04:55:42.362Z,26.28
2023-05-24T04:56:42.420Z,26.30
2023-05-24T04:57:42.444Z,26.30
2023-05-24T04:58:42.491Z,26.28
2023-05-24T04:59:42.515Z,26.25
2023-05-24T05:00:42.690Z,26.30
2023-05-24T05:01:42.609Z,26.28
2023-05-24T05:02:42.701Z,26.25
2023-05-24T05:03:42.739Z,26.27
2023-05-24T05:04:42.706Z,26.27
2023-05-24T05:05:42.717Z,26.27
2023-05-24T05:06:42.745Z,26.30
2023-05-24T05:07:42.787Z,26.27
2023-05-24T05:08:42.833Z,26.28
2023-05-24T05:09:42.854Z,26.30
2023-05-24T05:10:43.175Z,26.30
2023-05-24T05:11:42.954Z,26.28
2023-05-24T05:12:42.970Z,26.28
2023-05-24T05:13:43.000Z,26.28
2023-05-24T05:14:43.034Z,26.27
2023-05-24T05:15:43.162Z,26.27
2023-05-24T05:16:43.161Z,26.27
2023-05-24T05:17:43.206Z,26.28
2023-05-24T05:18:43.171Z,26.27
2023-05-24T05:19:43.216Z,26.27
2023-05-24T05:20:43.681Z,26.25
2023-05-24T05:21:43.455Z,26.27
2023-05-24T05:22:43.331Z,25.93
2023-05-24T05:23:43.374Z,25.83
2023-05-24T05:24:43.481Z,25.63
2023-05-24T05:25:43.583Z,25.22
2023-05-24T05:26:43.545Z,24.96
2023-05-24T05:27:43.512Z,24.81
2023-05-24T05:28:43.572Z,24.31
2023-05-24T05:29:43.566Z,24.20
2023-05-24T05:30:43.846Z,24.31
2023-05-24T05:31:43.667Z,24.25
2023-05-24T05:32:43.778Z,24.16
2023-05-24T05:33:43.781Z,24.13
2023-05-24T05:34:43.787Z,24.21
2023-05-24T05:35:43.858Z,24.34
2023-05-24T05:36:43.962Z,24.33
2023-05-24T05:37:43.976Z,24.46
2023-05-24T05:38:44.023Z,24.43
2023-05-24T05:39:44.080Z,24.43
2023-05-24T05:40:44.299Z,24.25
2023-05-24T05:41:45.799Z,24.46
2023-05-24T05:42:44.275Z,24.64
2023-05-24T05:43:44.311Z,24.74
2023-05-24T05:44:44.368Z,24.89
2023-05-24T05:45:44.464Z,25.02
2023-05-24T05:46:44.441Z,25.16
2023-05-24T05:47:44.526Z,25.29
2023-05-24T05:48:46.307Z,25.42
2023-05-24T05:49:44.478Z,25.52
2023-05-24T05:50:44.585Z,25.59
2023-05-24T05:51:44.491Z,25.66
2023-05-24T05:52:44.510Z,25.69
2023-05-24T05:53:44.507Z,25.80
2023-05-24T05:54:44.498Z,25.71
2023-05-24T05:55:44.497Z,25.53
2023-05-24T05:56:44.505Z,25.50
2023-05-24T05:57:44.511Z,25.66
2023-05-24T05:58:44.516Z,25.76
2023-05-24T05:59:44.511Z,25.84
2023-05-24T06:00:44.659Z,25.90
2023-05-24T06:01:44.511Z,25.94
2023-05-24T06:02:44.615Z,26.00
2023-05-24T06:03:44.765Z,26.07
2023-05-24T06:04:44.694Z,26.05
2023-05-24T06:05:44.699Z,26.17
2023-05-24T06:06:44.778Z,26.17
2023-05-24T06:07:44.809Z,26.22
2023-05-24T06:08:44.880Z,26.32
2023-05-24T06:09:44.942Z,26.35
2023-05-24T06:10:45.146Z,26.38
2023-05-24T06:11:45.473Z,26.45
2023-05-24T06:12:45.453Z,26.49
2023-05-24T06:13:45.094Z,26.52
2023-05-24T06:14:45.146Z,26.52
2023-05-24T06:15:45.163Z,26.58
2023-05-24T06:16:45.206Z,26.59
2023-05-24T06:17:45.494Z,26.62
2023-05-24T06:18:57.078Z,26.64
2023-05-24T06:19:46.248Z,26.69
2023-05-24T06:20:45.481Z,26.63
2023-05-24T06:21:45.227Z,26.69
2023-05-24T06:22:45.219Z,26.69
2023-05-24T06:23:45.206Z,26.71
2023-05-24T06:24:45.199Z,26.72
2023-05-24T06:25:45.196Z,26.76
2023-05-24T06:26:45.186Z,26.78
2023-05-24T06:27:45.167Z,26.62
2023-05-24T06:28:45.180Z,26.21
2023-05-24T06:29:45.196Z,26.27
2023-05-24T06:30:45.412Z,25.87
2023-05-24T06:31:45.181Z,25.53
2023-05-24T06:32:45.209Z,25.69
2023-05-24T06:33:52.502Z,25.74
2023-05-24T06:34:46.153Z,25.83
2023-05-24T06:35:45.108Z,25.90
2023-05-24T06:36:45.487Z,25.98
2023-05-24T06:37:45.105Z,26.12
2023-05-24T06:38:45.105Z,26.24
2023-05-24T06:39:45.092Z,26.30
2023-05-24T06:40:45.108Z,26.30
2023-05-24T06:41:45.093Z,26.43
2023-05-24T06:42:45.084Z,26.43
2023-05-24T06:43:45.087Z,26.46
2023-05-24T06:44:45.055Z,26.55
2023-05-24T06:45:45.052Z,26.60
2023-05-24T06:46:45.504Z,26.69
2023-05-24T06:47:45.132Z,26.73
2023-05-24T06:48:45.328Z,26.82
2023-05-24T06:49:45.075Z,26.85
2023-05-24T06:50:45.279Z,26.85
2023-05-24T06:51:45.477Z,26.83
2023-05-24T06:52:45.062Z,26.94
2023-05-24T06:53:45.059Z,26.99
2023-05-24T06:54:45.067Z,27.04
2023-05-24T06:55:45.073Z,27.06
2023-05-24T06:56:45.492Z,27.10
2023-05-24T06:57:45.118Z,27.14
2023-05-24T06:58:45.158Z,27.15
2023-05-24T06:59:45.212Z,27.17
2023-05-24T07:00:45.620Z,27.13
2023-05-24T07:01:45.517Z,27.13
2023-05-24T07:02:45.402Z,27.14
2023-05-24T07:03:45.471Z,27.15
2023-05-24T07:04:45.574Z,27.17
2023-05-24T07:05:45.574Z,27.09
2023-05-24T07:06:45.615Z,27.10
2023-05-24T07:07:45.996Z,27.11
2023-05-24T07:08:45.746Z,27.18
2023-05-24T07:09:45.796Z,27.20
2023-05-24T07:10:45.880Z,27.20
2023-05-24T07:11:45.941Z,27.20
2023-05-24T07:12:45.992Z,27.21
2023-05-24T07:13:46.042Z,27.20
2023-05-24T07:14:46.103Z,27.24
2023-05-24T07:15:46.169Z,27.23
2023-05-24T07:16:46.548Z,27.23
2023-05-24T07:17:46.309Z,27.23
2023-05-24T07:18:46.335Z,27.23
2023-05-24T07:19:46.392Z,27.20
2023-05-24T07:20:46.722Z,27.10
2023-05-24T07:21:46.512Z,27.21
2023-05-24T07:22:46.995Z,27.04
2023-05-24T07:23:46.617Z,27.18
2023-05-24T07:24:46.687Z,27.13
2023-05-24T07:25:46.754Z,26.97
2023-05-24T07:26:46.984Z,27.11
2023-05-24T07:27:46.887Z,27.15
2023-05-24T07:28:46.949Z,26.96
2023-05-24T07:29:48.350Z,27.17
2023-05-24T07:30:47.126Z,27.24
2023-05-24T07:31:47.528Z,27.26
2023-05-24T07:32:47.650Z,27.34
2023-05-24T07:33:47.196Z,27.34
2023-05-24T07:34:47.262Z,27.31
2023-05-24T07:35:47.348Z,27.40
2023-05-24T07:36:47.360Z,27.36
2023-05-24T07:37:47.510Z,27.40
2023-05-24T07:38:47.444Z,27.42
2023-05-24T07:39:47.461Z,27.42
2023-05-24T07:40:47.505Z,27.40
2023-05-24T07:41:48.036Z,27.42
2023-05-24T07:42:47.594Z,27.47
2023-05-24T07:43:47.618Z,27.29
2023-05-24T07:44:47.657Z,27.15
2023-05-24T07:45:47.752Z,27.11
2023-05-24T07:46:47.853Z,26.96
2023-05-24T07:47:47.888Z,26.80
2023-05-24T07:48:47.848Z,26.68
2023-05-24T07:49:47.833Z,26.38
2023-05-24T07:50:47.883Z,26.25
2023-05-24T07:51:47.912Z,26.25
2023-05-24T07:52:47.975Z,26.02
2023-05-24T07:53:48.011Z,25.94
2023-05-24T07:54:48.090Z,25.87
2023-05-24T07:55:48.162Z,25.76
2023-05-24T07:56:48.146Z,25.63
2023-05-24T07:57:48.160Z,25.34
2023-05-24T07:58:48.161Z,25.25
2023-05-24T07:59:48.164Z,25.12
2023-05-24T08:00:48.189Z,25.16
2023-05-24T08:01:48.242Z,25.21
2023-05-24T08:02:48.293Z,25.21
2023-05-24T08:03:48.372Z,25.21
2023-05-24T08:04:48.234Z,25.26
2023-05-24T08:05:48.253Z,25.26
2023-05-24T08:06:48.325Z,25.37
2023-05-24T08:07:48.271Z,25.50
2023-05-24T08:08:48.280Z,25.59
2023-05-24T08:09:48.290Z,25.64
2023-05-24T08:10:48.310Z,25.67
2023-05-24T08:11:48.513Z,25.71
2023-05-24T08:12:48.305Z,25.73
2023-05-24T08:13:48.305Z,25.70
2023-05-24T08:14:48.334Z,25.79
2023-05-24T08:15:48.350Z,25.76
2023-05-24T08:16:48.422Z,25.80
2023-05-24T08:17:48.375Z,25.71
2023-05-24T08:18:48.361Z,25.73
2023-05-24T08:19:48.381Z,25.81
2023-05-24T08:20:48.472Z,25.84
2023-05-24T08:21:48.574Z,25.64
2023-05-24T08:22:48.537Z,25.47
2023-05-24T08:23:48.679Z,25.26
2023-05-24T08:24:48.540Z,25.16
2023-05-24T08:25:48.547Z,25.28
2023-05-24T08:26:48.528Z,25.19
2023-05-24T08:27:48.558Z,25.22
2023-05-24T08:28:48.563Z,25.40
2023-05-24T08:29:48.576Z,25.42
2023-05-24T08:30:48.600Z,25.37
2023-05-24T08:31:48.650Z,25.43
2023-05-24T08:32:48.715Z,25.30
2023-05-24T08:33:48.639Z,25.30
2023-05-24T08:34:48.662Z,24.82
2023-05-24T08:35:48.676Z,24.81
2023-05-24T08:36:49.034Z,25.12
2023-05-24T08:37:48.707Z,24.85
2023-05-24T08:38:48.716Z,24.96
2023-05-24T08:39:48.745Z,25.06
2023-05-24T08:40:48.739Z,25.32
2023-05-24T08:42:00.910Z,25.40
2023-05-24T08:42:49.737Z,25.49
2023-05-24T08:43:48.726Z,25.63
2023-05-24T08:44:48.728Z,25.69
2023-05-24T08:45:49.107Z,25.74
2023-05-24T08:46:48.810Z,25.83
2023-05-24T08:47:48.838Z,25.88
2023-05-24T08:48:48.809Z,25.94
2023-05-24T08:49:48.847Z,26.02
2023-05-24T08:50:48.916Z,26.07
2023-05-24T08:51:48.976Z,26.07
2023-05-24T08:52:49.046Z,26.05
2023-05-24T08:53:49.190Z,26.12
2023-05-24T08:54:49.150Z,26.17
2023-05-24T08:55:49.239Z,26.20
2023-05-24T08:56:49.260Z,26.24
2023-05-24T08:57:49.316Z,26.27
2023-05-24T08:58:49.352Z,26.27
2023-05-24T08:59:49.425Z,26.31
2023-05-24T09:00:49.487Z,26.31
2023-05-24T09:01:49.635Z,26.35
2023-05-24T09:02:49.571Z,26.34
2023-05-24T09:03:49.618Z,26.36
2023-05-24T09:04:49.615Z,26.39
2023-05-24T09:05:49.675Z,26.36
2023-05-24T09:06:49.708Z,26.41
2023-05-24T09:07:49.757Z,26.42
2023-05-24T09:08:49.785Z,26.42
2023-05-24T09:09:49.839Z,26.42
2023-05-24T09:10:55.441Z,26.45
2023-05-24T09:11:51.016Z,26.45
2023-05-24T09:12:49.896Z,26.45
2023-05-24T09:13:49.877Z,26.48
2023-05-24T09:14:49.829Z,26.48
2023-05-24T09:15:49.880Z,26.46
2023-05-24T09:16:49.820Z,26.49
2023-05-24T09:17:49.912Z,26.51
2023-05-24T09:18:49.816Z,26.43
2023-05-24T09:19:49.847Z,26.36
2023-05-24T09:20:49.935Z,26.43
2023-05-24T09:21:50.059Z,26.48
2023-05-24T09:22:49.783Z,26.52
2023-05-24T09:23:49.775Z,26.51
2023-05-24T09:24:49.774Z,26.52
2023-05-24T09:25:49.760Z,26.55
2023-05-24T09:26:49.766Z,26.56
2023-05-24T09:27:49.865Z,26.55
2023-05-24T09:28:49.802Z,26.58
2023-05-24T09:29:49.824Z,26.59
2023-05-24T09:30:49.846Z,26.60
2023-05-24T09:31:50.160Z,26.60
2023-05-24T09:32:49.942Z,26.58
2023-05-24T09:33:49.936Z,26.63
2023-05-24T09:34:49.946Z,26.71
2023-05-24T09:35:49.970Z,26.73
2023-05-24T09:36:49.995Z,26.68
2023-05-24T09:37:49.990Z,26.79
2023-05-24T09:38:49.997Z,26.80
2023-05-24T09:39:49.987Z,26.90
2023-05-24T09:40:49.986Z,26.89
2023-05-24T09:41:49.989Z,26.87
2023-05-24T09:42:49.996Z,26.96
2023-05-24T09:43:50.150Z,26.97
2023-05-24T09:44:50.084Z,27.03
2023-05-24T09:45:50.133Z,26.94
2023-05-24T09:46:50.646Z,27.06
2023-05-24T09:47:50.275Z,27.10
2023-05-24T09:48:50.319Z,27.17
2023-05-24T09:49:50.364Z,27.14
2023-05-24T09:50:50.431Z,27.20
2023-05-24T09:51:50.513Z,27.18
2023-05-24T09:52:50.549Z,27.23
2023-05-24T09:53:50.604Z,27.10
2023-05-24T09:54:50.645Z,27.21
2023-05-24T09:55:50.697Z,27.17
2023-05-24T09:56:50.778Z,27.21
2023-05-24T09:57:50.814Z,27.23
2023-05-24T09:58:50.885Z,27.15
2023-05-24T09:59:51.009Z,27.23
2023-05-24T10:00:51.132Z,27.24
2023-05-24T10:01:51.154Z,27.26
2023-05-24T10:02:52.980Z,27.31
2023-05-24T10:03:51.348Z,27.31
2023-05-24T10:04:51.396Z,27.36
2023-05-24T10:05:51.365Z,27.34
2023-05-24T10:06:51.425Z,27.36
2023-05-24T10:07:51.456Z,27.40
2023-05-24T10:08:51.623Z,27.41
2023-05-24T10:09:51.663Z,27.41
2023-05-24T10:10:51.645Z,27.41
2023-05-24T10:11:51.672Z,27.47
2023-05-24T10:12:51.705Z,27.45
2023-05-24T10:13:51.759Z,27.47
2023-05-24T10:14:51.824Z,27.47
2023-05-24T10:15:51.846Z,27.47
2023-05-24T10:16:51.925Z,27.50
2023-05-24T10:17:51.944Z,27.50
2023-05-24T10:18:51.973Z,27.50
2023-05-24T10:19:52.039Z,27.54
2023-05-24T10:20:52.471Z,27.45
2023-05-24T10:21:52.089Z,27.23
2023-05-24T10:22:52.087Z,27.31
2023-05-24T10:23:52.131Z,27.06
2023-05-24T10:24:52.205Z,27.11
2023-05-24T10:25:52.240Z,27.11
2023-05-24T10:26:52.288Z,27.29
2023-05-24T10:27:52.350Z,27.38
2023-05-24T10:28:52.392Z,27.41
2023-05-24T10:29:52.431Z,27.40
2023-05-24T10:30:52.488Z,27.52
2023-05-24T10:31:52.500Z,27.60
2023-05-24T10:32:52.550Z,27.66
2023-05-24T10:33:53.287Z,27.68
2023-05-24T10:34:52.539Z,27.68
2023-05-24T10:35:52.541Z,27.68
2023-05-24T10:36:52.528Z,27.72
2023-05-24T10:37:52.518Z,27.72
2023-05-24T10:38:52.500Z,27.80
2023-05-24T10:39:52.507Z,27.81
2023-05-24T10:40:52.618Z,27.75
2023-05-24T10:41:52.475Z,27.80
2023-05-24T10:42:52.490Z,27.80
2023-05-24T10:44:07.958Z,27.80
2023-05-24T10:44:53.482Z,27.64
2023-05-24T10:45:52.490Z,27.66
2023-05-24T10:46:52.572Z,27.68
2023-05-24T10:47:52.513Z,27.61
2023-05-24T10:48:52.439Z,27.48
2023-05-24T10:49:52.453Z,27.55
2023-05-24T10:50:52.412Z,27.50
2023-05-24T10:51:52.415Z,27.52
2023-05-24T10:52:52.409Z,27.54
2023-05-24T10:53:52.400Z,27.51
2023-05-24T10:55:03.364Z,27.44
2023-05-24T10:55:53.391Z,27.47
2023-05-24T10:56:52.370Z,27.51
2023-05-24T10:57:52.373Z,27.47
2023-05-24T10:58:52.361Z,27.45
2023-05-24T10:59:52.354Z,27.42
2023-05-24T11:00:52.505Z,27.44
2023-05-24T11:01:52.667Z,27.50
2023-05-24T11:02:52.386Z,27.47
2023-05-24T11:03:52.343Z,27.50
2023-05-24T11:04:52.340Z,27.50
2023-05-24T11:05:52.364Z,27.51
2023-05-24T11:06:52.311Z,27.51
2023-05-24T11:07:52.598Z,27.52
2023-05-24T11:08:52.353Z,27.54
2023-05-24T11:09:52.393Z,27.55
2023-05-24T11:10:52.425Z,27.51
2023-05-24T11:11:52.464Z,27.42
2023-05-24T11:12:52.507Z,27.47
2023-05-24T11:13:52.533Z,27.17
2023-05-24T11:14:52.895Z,26.87
2023-05-24T11:15:52.690Z,26.53
2023-05-24T11:16:52.724Z,26.41
2023-05-24T11:17:52.726Z,25.97
2023-05-24T11:18:52.670Z,25.66
2023-05-24T11:19:52.836Z,25.39
2023-05-24T11:20:52.963Z,25.22
2023-05-24T11:21:52.759Z,25.13
2023-05-24T11:22:52.833Z,24.99
2023-05-24T11:23:52.892Z,24.70
2023-05-24T11:24:52.887Z,24.27
2023-05-24T11:25:52.882Z,24.35
2023-05-24T11:26:52.913Z,24.10
2023-05-24T11:27:52.921Z,23.97
2023-05-24T11:28:52.915Z,23.83
2023-05-24T11:29:52.950Z,23.69
2023-05-24T11:30:52.947Z,23.70
2023-05-24T11:31:53.108Z,23.52
2023-05-24T11:32:53.057Z,23.44
2023-05-24T11:33:53.024Z,23.44
2023-05-24T11:34:53.073Z,23.28
2023-05-24T11:35:53.127Z,23.38
2023-05-24T11:36:53.173Z,23.80
2023-05-24T11:37:53.218Z,23.87
2023-05-24T11:38:53.280Z,24.06
2023-05-24T11:39:53.397Z,24.16
2023-05-24T11:40:53.357Z,24.27
2023-05-24T11:41:53.405Z,24.47
2023-05-24T11:42:53.441Z,24.62
2023-05-24T11:43:53.472Z,24.78
2023-05-24T11:44:53.470Z,24.92
2023-05-24T11:45:53.487Z,25.08
2023-05-24T11:46:53.473Z,25.05
2023-05-24T11:47:53.554Z,25.26
2023-05-24T11:48:53.486Z,25.28
2023-05-24T11:49:53.482Z,25.44
2023-05-24T11:50:53.770Z,25.59
2023-05-24T11:51:53.636Z,25.69
2023-05-24T11:52:53.652Z,25.77
2023-05-24T11:53:54.900Z,25.87
2023-05-24T11:54:53.758Z,25.91
2023-05-24T11:55:53.831Z,25.97
2023-05-24T11:56:53.898Z,26.00
2023-05-24T11:57:53.930Z,26.05
2023-05-24T11:58:53.994Z,26.11
2023-05-24T11:59:54.044Z,26.15
2023-05-24T12:00:54.078Z,26.20
2023-05-24T12:01:54.158Z,26.22
2023-05-24T12:02:57.009Z,26.27
2023-05-24T12:03:54.385Z,26.27
2023-05-24T12:04:54.221Z,26.30
2023-05-24T12:05:54.166Z,26.31
2023-05-24T12:06:54.150Z,26.34
2023-05-24T12:07:54.155Z,26.35
2023-05-24T12:08:54.155Z,26.34
2023-05-24T12:09:54.149Z,26.36
2023-05-24T12:10:54.144Z,26.41
2023-05-24T12:11:54.643Z,26.42
2023-05-24T12:12:54.119Z,26.42
2023-05-24T12:13:54.090Z,26.43
2023-05-24T12:14:54.086Z,26.42
2023-05-24T12:15:56.176Z,26.41
2023-05-24T12:16:54.169Z,26.42
2023-05-24T12:17:54.108Z,26.30
2023-05-24T12:19:04.182Z,26.49
2023-05-24T12:19:55.147Z,26.59
2023-05-24T12:20:54.078Z,26.64
2023-05-24T12:21:54.368Z,26.69
2023-05-24T12:22:54.042Z,26.78
2023-05-24T12:23:54.049Z,26.90
2023-05-24T12:24:54.015Z,26.92
2023-05-24T12:25:54.013Z,27.02
2023-05-24T12:26:54.021Z,26.97
2023-05-24T12:27:54.726Z,27.09
2023-05-24T12:28:53.990Z,27.14
2023-05-24T12:29:54.003Z,27.20
2023-05-24T12:30:54.036Z,27.17
2023-05-24T12:31:54.025Z,27.27
2023-05-24T12:32:54.034Z,27.37
2023-05-24T12:33:54.549Z,27.45
2023-05-24T12:34:54.105Z,27.40
2023-05-24T12:35:54.156Z,27.31
2023-05-24T12:36:54.194Z,27.29
2023-05-24T12:37:54.260Z,27.40
2023-05-24T12:38:54.266Z,27.41
2023-05-24T12:39:54.919Z,27.50
2023-05-24T12:41:10.753Z,27.50
2023-05-24T12:41:55.300Z,27.42
2023-05-24T12:42:54.288Z,27.48
2023-05-24T12:43:54.312Z,27.52
2023-05-24T12:44:54.309Z,27.47
2023-05-24T12:45:54.655Z,27.52
2023-05-24T12:46:54.490Z,27.58
2023-05-24T12:47:54.345Z,27.57
2023-05-24T12:48:54.252Z,27.61
2023-05-24T12:49:54.229Z,27.62
2023-05-24T12:50:54.233Z,27.69
2023-05-24T12:51:54.228Z,27.64
2023-05-24T12:52:54.646Z,27.74
2023-05-24T12:53:54.229Z,27.71